^^
Station Historical Data
Daily Summary for January 30, 2018 Units:  Metric    English   Both
« Previous Day
Next Day »
Daily Weekly Monthly Yearly Custom
  High: Low: Average:
Temperature: -17.8 °C 16.2 °C 21.4 °C
Dew Point: -17.8 °C 4.9 °C 11.2 °C
Humidity: Humidity% 19% 56%
Wind Speed: 0km/h 4.7km/h 16.6km/h
Wind Gust: 0km/h - -
Wind- - SSW
Pressure: 0 hPa 1003.9 hPa -
Precipitation: 0 mm    
Historical Graphs
 
 
Tabular Data for January 30, 2018
Time Temperature Dew Point Pressure Wind Wind Speed Wind Gust Humidity Rainfall Rate (Hourly) solar Conditions
-17.8 °C -17.8 °C 0 hPa Calm     Humidity% 0 mm SolarRadiationWatts/m^2 W/m2 Conditions
00:02 20.8 °C 10.6 °C 1007.7 hPa SSW 7.9 km/h 14.5 km/h 52% 0 mm 0.0 W/m2
00:07 20.8 °C 10.6 °C 1007.7 hPa SSW 7.9 km/h 12.9 km/h 52% 0 mm 0.0 W/m2
00:12 20.7 °C 10.8 °C 1007.7 hPa SSW 9.7 km/h 16.1 km/h 53% 0 mm 0.0 W/m2
00:17 20.7 °C 10.8 °C 1007.7 hPa SSW 9.7 km/h 16.1 km/h 53% 0 mm 0.0 W/m2
00:22 20.6 °C 11 °C 1007.7 hPa SSW 19.5 km/h 19.5 km/h 54% 0 mm 0.0 W/m2
00:27 20.6 °C 11 °C 1007.7 hPa SSW 11.1 km/h 14.5 km/h 54% 0 mm 0.0 W/m2
00:37 20.4 °C 11.3 °C 1007.7 hPa SSW 9.7 km/h 17.7 km/h 56% 0 mm 0.0 W/m2
00:42 20.3 °C 11.2 °C 1007.7 hPa SSW 11.1 km/h 12.9 km/h 56% 0 mm 0.0 W/m2
00:47 20.2 °C 11.4 °C 1007.7 hPa SSW 13 km/h 17.7 km/h 57% 0 mm 0.0 W/m2
00:52 20.1 °C 11.6 °C 1007.3 hPa SSW 14.3 km/h 16.1 km/h 58% 0 mm 0.0 W/m2
01:02 19.9 °C 11.6 °C 1007.3 hPa SSW 14.3 km/h 17.7 km/h 59% 0 mm 0.0 W/m2
01:07 19.8 °C 11.6 °C 1007.3 hPa SSW 9.7 km/h 14.5 km/h 59% 0 mm 0.0 W/m2
01:12 19.7 °C 11.5 °C 1007.3 hPa SSW 11.1 km/h 16.1 km/h 59% 0 mm 0.0 W/m2
01:22 19.7 °C 11.5 °C 1007 hPa SSW 7.9 km/h 12.9 km/h 59% 0 mm 0.0 W/m2
01:27 19.6 °C 11.6 °C 1007 hPa SSW 9.7 km/h 12.9 km/h 60% 0 mm 0.0 W/m2
01:32 19.6 °C 11.6 °C 1007 hPa SSW 11.1 km/h 12.9 km/h 60% 0 mm 0.0 W/m2
01:42 19.4 °C 11.7 °C 1007 hPa SSW 7.9 km/h 12.9 km/h 61% 0 mm 0.0 W/m2
01:57 19.2 °C 11.7 °C 1007 hPa SSW 11.1 km/h 16.1 km/h 62% 0 mm 0.0 W/m2
02:02 19.2 °C 11.7 °C 1007 hPa SSW 13 km/h 13 km/h 62% 0 mm 0.0 W/m2
02:07 19.1 °C 11.6 °C 1007 hPa SSW 14.3 km/h 16.1 km/h 62% 0 mm 0.0 W/m2
02:13 19.1 °C 11.6 °C 1007 hPa SSW 7.9 km/h 12.9 km/h 62% 0 mm 0.0 W/m2
02:23 19 °C 11.8 °C 1007 hPa SSW 11.1 km/h 14.5 km/h 63% 0 mm 0.0 W/m2
02:33 18.9 °C 11.7 °C 1007 hPa SSW 6.4 km/h 9.7 km/h 63% 0 mm 0.0 W/m2
02:38 18.8 °C 11.8 °C 1007 hPa SSW 9.7 km/h 11.3 km/h 64% 0 mm 0.0 W/m2
02:43 18.7 °C 11.8 °C 1006.7 hPa SSW 6.4 km/h 11.3 km/h 64% 0 mm 0.0 W/m2
02:48 18.7 °C 11.8 °C 1007 hPa SSW 7.9 km/h 8 km/h 64% 0 mm 0.0 W/m2
02:53 18.6 °C 11.9 °C 1006.7 hPa SSW 9.7 km/h 9.7 km/h 65% 0 mm 0.0 W/m2
03:03 18.6 °C 11.9 °C 1006.7 hPa SSW 9.7 km/h 11.3 km/h 65% 0 mm 0.0 W/m2
03:13 18.5 °C 11.8 °C 1006.3 hPa South 9.7 km/h 14.5 km/h 65% 0 mm 0.0 W/m2
03:18 18.4 °C 11.9 °C 1006.7 hPa South 7.9 km/h 14.5 km/h 66% 0 mm 0.0 W/m2
03:23 18.4 °C 11.9 °C 1006.7 hPa South 9.7 km/h 11.3 km/h 66% 0 mm 0.0 W/m2
03:29 18.3 °C 11.8 °C 1006.3 hPa South 7.9 km/h 12.9 km/h 66% 0 mm 0.0 W/m2
03:39 18.2 °C 12 °C 1006.3 hPa South 13 km/h 13 km/h 67% 0 mm 0.0 W/m2
03:44 18.1 °C 11.9 °C 1006.3 hPa South 9.7 km/h 14.5 km/h 67% 0 mm 0.0 W/m2
03:49 18.1 °C 12.1 °C 1006.3 hPa SSW 11.1 km/h 14.5 km/h 68% 0 mm 0.0 W/m2
03:54 17.9 °C 12.1 °C 1006.3 hPa SSW 13 km/h 16.1 km/h 69% 0 mm 0.0 W/m2
03:59 17.9 °C 12.1 °C 1006.3 hPa SSW 9.7 km/h 12.9 km/h 69% 0 mm 0.0 W/m2
04:04 17.8 °C 12.3 °C 1006.3 hPa SSW 11.1 km/h 12.9 km/h 70% 0 mm 0.0 W/m2
04:09 17.7 °C 12.2 °C 1006.3 hPa SSW 9.7 km/h 16.1 km/h 70% 0 mm 0.0 W/m2
04:14 17.6 °C 12.3 °C 1006.3 hPa SSW 13 km/h 16.1 km/h 71% 0 mm 0.0 W/m2
04:19 17.5 °C 12.2 °C 1006.3 hPa SSW 14.3 km/h 16.1 km/h 71% 0 mm 0.0 W/m2
04:24 17.4 °C 12.3 °C 1006.3 hPa SSW 9.7 km/h 16.1 km/h 72% 0 mm 0.0 W/m2
04:29 17.3 °C 12.4 °C 1006.3 hPa SSW 13 km/h 14.5 km/h 73% 0 mm 0.0 W/m2
04:34 17.2 °C 12.3 °C 1006.3 hPa SSW 11.1 km/h 11.3 km/h 73% 0 mm 0.0 W/m2
04:39 17.2 °C 12.5 °C 1006.3 hPa SSW 13 km/h 19.3 km/h 74% 0 mm 0.0 W/m2
04:44 17.1 °C 12.4 °C 1006.3 hPa SSW 11.1 km/h 19.3 km/h 74% 0 mm 0.0 W/m2
04:49 17 °C 12.5 °C 1006.3 hPa SSW 7.9 km/h 16.1 km/h 75% 0 mm 0.0 W/m2
04:54 16.9 °C 12.4 °C 1006.3 hPa SSW 11.1 km/h 14.5 km/h 75% 0 mm 0.0 W/m2
04:59 16.8 °C 12.3 °C 1006.3 hPa SSW 9.7 km/h 11.3 km/h 75% 0 mm 0.0 W/m2
05:05 16.7 °C 12.4 °C 1006.3 hPa SSW 7.9 km/h 9.7 km/h 76% 0 mm 0.0 W/m2
05:15 16.6 °C 12.4 °C 1006.3 hPa SSW 4.7 km/h 6.4 km/h 76% 0 mm 0.0 W/m2
05:20 16.4 °C 12.4 °C 1006.3 hPa SSW 6.4 km/h 8 km/h 77% 0 mm 0.0 W/m2
05:25 16.4 °C 12.4 °C 1006.3 hPa SSW 9.7 km/h 9.7 km/h 77% 0 mm 0.0 W/m2
05:30 16.4 °C 12.4 °C 1006.3 hPa SSW 13 km/h 13 km/h 77% 0 mm 0.0 W/m2
05:40 16.5 °C 12.5 °C 1006.3 hPa SSW 11.1 km/h 12.9 km/h 77% 0 mm 0.0 W/m2
05:45 16.5 °C 12.5 °C 1006.3 hPa SSW 11.1 km/h 14.5 km/h 77% 0 mm 0.0 W/m2
05:50 16.5 °C 12.5 °C 1006.3 hPa SSW 11.1 km/h 14.5 km/h 77% 0 mm 0.0 W/m2
05:55 16.5 °C 12.5 °C 1006.7 hPa SSW 11.1 km/h 16.1 km/h 77% 0 mm 0.0 W/m2
06:00 16.4 °C 12.4 °C 1006.3 hPa SSW 7.9 km/h 16.1 km/h 77% 0 mm 0.0 W/m2
06:05 16.4 °C 12.4 °C 1006.7 hPa SSW 14.3 km/h 16.1 km/h 77% 0 mm 0.0 W/m2
06:10 16.3 °C 12.3 °C 1006.3 hPa SSW 13 km/h 16.1 km/h 77% 0 mm 0.0 W/m2
06:16 16.3 °C 12.5 °C 1006.7 hPa SSW 9.7 km/h 14.5 km/h 78% 0 mm 0.0 W/m2
06:26 16.3 °C 12.7 °C 1006.7 hPa SSW 11.1 km/h 16.1 km/h 79% 0 mm 5.0 W/m2
06:36 16.2 °C 12.7 °C 1007 hPa SSW 7.9 km/h 12.9 km/h 80% 0 mm 12.0 W/m2
06:46 16.2 °C 12.9 °C 1007 hPa SSW 7.9 km/h 14.5 km/h 81% 0 mm 26.0 W/m2
06:51 16.2 °C 12.9 °C 1007 hPa SSW 11.1 km/h 16.1 km/h 81% 0 mm 21.0 W/m2
06:56 16.3 °C 13 °C 1007.3 hPa SSW 16.3 km/h 16.3 km/h 81% 0 mm 56.0 W/m2
07:01 16.3 °C 13 °C 1007.3 hPa SSW 9.7 km/h 14.5 km/h 81% 0 mm 35.0 W/m2
07:11 16.3 °C 13 °C 1007.3 hPa SSW 11.1 km/h 14.5 km/h 81% 0 mm 111.0 W/m2
07:16 16.4 °C 13.1 °C 1007.3 hPa SSW 14.3 km/h 14.5 km/h 81% 0 mm 135.0 W/m2
07:26 16.8 °C 13.3 °C 1007.3 hPa SSW 13 km/h 16.1 km/h 80% 0 mm 179.0 W/m2
07:31 16.9 °C 13.4 °C 1007.3 hPa SSW 11.1 km/h 14.5 km/h 80% 0 mm 197.0 W/m2
07:37 17.1 °C 13.4 °C 1007.3 hPa SSW 17.7 km/h 19.3 km/h 79% 0 mm 218.0 W/m2
07:46 17.2 °C 13.3 °C 1007.3 hPa SW 14.3 km/h 24.1 km/h 78% 0 mm 257.0 W/m2
07:51 17.3 °C 13.2 °C 1007.3 hPa SW 14.3 km/h 22.5 km/h 77% 0 mm 274.0 W/m2
08:02 17.6 °C 13.3 °C 1007.3 hPa SW 20.9 km/h 25.7 km/h 76% 0 mm 311.0 W/m2
08:08 17.6 °C 13.3 °C 1007.3 hPa SW 22.7 km/h 25.7 km/h 76% 0 mm 327.0 W/m2
08:14 17.7 °C 13.2 °C 1007.7 hPa SW 22.7 km/h 22.7 km/h 75% 0 mm 348.0 W/m2
08:24 18.2 °C 13.3 °C 1007.3 hPa SW 20.9 km/h 25.7 km/h 73% 0 mm 380.0 W/m2
08:37 18.4 °C 13.3 °C 1007.7 hPa SW 24.1 km/h 27.4 km/h 72% 0 mm 417.0 W/m2
09:06 19 °C 13.4 °C 1007.7 hPa SW 22.7 km/h 27.4 km/h 70% 0 mm 519.0 W/m2
09:16 19.2 °C 13.6 °C 1007.7 hPa SSW 20.9 km/h 25.7 km/h 70% 0 mm 555.0 W/m2
09:27 19.7 °C 13.4 °C 1007.7 hPa SSW 24.1 km/h 30.6 km/h 67% 0 mm 587.0 W/m2
09:41 20.2 °C 13.4 °C 1007.7 hPa SSW 16.3 km/h 25.7 km/h 65% 0 mm 636.0 W/m2
09:51 20.7 °C 13.2 °C 1007.7 hPa SW 22.7 km/h 25.7 km/h 62% 0 mm 666.0 W/m2
10:02 21.2 °C 13.1 °C 1007.3 hPa SW 22.7 km/h 25.7 km/h 60% 0 mm 696.0 W/m2
10:18 21.9 °C 13.3 °C 1007.3 hPa SW 17.7 km/h 22.5 km/h 58% 0 mm 740.0 W/m2
10:32 22.3 °C 13.1 °C 1007.3 hPa SW 17.7 km/h 22.5 km/h 56% 0 mm 782.0 W/m2
10:43 23 °C 13.2 °C 1007.3 hPa SW 19.5 km/h 27.4 km/h 54% 0 mm 805.0 W/m2
10:58 23.3 °C 13.2 °C 1007.3 hPa SSW 24.1 km/h 29 km/h 53% 0 mm 840.0 W/m2
11:12 24 °C 13.2 °C 1007.3 hPa SW 17.7 km/h 24.1 km/h 51% 0 mm 874.0 W/m2
11:23 24.3 °C 13.2 °C 1007.3 hPa SSW 25.9 km/h 27.4 km/h 50% 0 mm 891.0 W/m2
11:39 25.3 °C 13.2 °C 1007.3 hPa SW 22.7 km/h 25.7 km/h 47% 0 mm 916.0 W/m2
11:54 25.9 °C 13.1 °C 1007 hPa SW 19.5 km/h 25.7 km/h 45% 0 mm 937.0 W/m2
12:10 26.9 °C 12.9 °C 1007 hPa SW 19.5 km/h 25.7 km/h 42% 0 mm 956.0 W/m2
12:25 27.6 °C 12.4 °C 1006.7 hPa South 25.9 km/h 32.2 km/h 39% 0 mm 967.0 W/m2
12:40 28.1 °C 12 °C 1006.7 hPa SW 17.7 km/h 27.4 km/h 37% 0 mm 977.0 W/m2
12:53 28.7 °C 11.7 °C 1006.3 hPa SSW 16.3 km/h 29 km/h 35% 0 mm 983.0 W/m2
13:07 28.8 °C 11.4 °C 1006.3 hPa SW 24.1 km/h 27.4 km/h 34% 0 mm 984.0 W/m2
13:19 29.3 °C 11.4 °C 1006.3 hPa SW 19.5 km/h 27.4 km/h 33% 0 mm 984.0 W/m2
13:34 29.3 °C 9.9 °C 1006 hPa South 20.9 km/h 24.1 km/h 30% 0 mm 981.0 W/m2
13:47 29.8 °C 9.9 °C 1006 hPa SW 16.3 km/h 30.6 km/h 29% 0 mm 972.0 W/m2
13:56 29.9 °C 8.9 °C 1005.6 hPa South 17.7 km/h 29 km/h 27% 0 mm 963.0 W/m2
14:09 30.1 °C 9 °C 1005.6 hPa SSW 17.7 km/h 24.1 km/h 27% 0 mm 953.0 W/m2
15:45 31.8 °C 7.5 °C 1004.6 hPa South 25.9 km/h 30.6 km/h 22% 0 mm 775.0 W/m2
16:14 31.7 °C 6 °C 1004.3 hPa South 22.7 km/h 29 km/h 20% 0 mm 693.0 W/m2
16:44 32.2 °C 5.7 °C 1003.9 hPa South 27.4 km/h 27.4 km/h 19% 0 mm 598.0 W/m2
16:53 32.1 °C 5.6 °C 1003.9 hPa South 22.7 km/h 25.7 km/h 19% 0 mm 557.0 W/m2
17:03 32 °C 5.5 °C 1003.9 hPa SSW 20.9 km/h 29 km/h 19% 0 mm 533.0 W/m2
17:11 31.9 °C 6.1 °C 1003.9 hPa South 27.4 km/h 27.4 km/h 20% 0 mm 497.0 W/m2
17:19 31.9 °C 5.4 °C 1003.9 hPa South 20.9 km/h 25.7 km/h 19% 0 mm 461.0 W/m2
17:25 31.8 °C 5.3 °C 1003.9 hPa SSW 30.6 km/h 35.4 km/h 19% 0 mm 443.0 W/m2
17:30 31.7 °C 6 °C 1003.9 hPa SSW 27.4 km/h 32.2 km/h 20% 0 mm 429.0 W/m2
17:39 31.3 °C 4.9 °C 1003.9 hPa SSW 25.9 km/h 33.8 km/h 19% 0 mm 392.0 W/m2
17:45 31.4 °C 5 °C 1003.9 hPa SSW 20.9 km/h 30.6 km/h 19% 0 mm 374.0 W/m2
17:50 31.5 °C 5.8 °C 1003.9 hPa SSW 24.1 km/h 32.2 km/h 20% 0 mm 355.0 W/m2
18:04 31.1 °C 5.5 °C 1003.9 hPa SSW 25.9 km/h 37 km/h 20% 0 mm 301.0 W/m2
18:10 31 °C 5.4 °C 1003.9 hPa SSW 32 km/h 33.8 km/h 20% 0 mm 285.0 W/m2
18:15 30.8 °C 5.2 °C 1003.9 hPa SW 20.9 km/h 32.2 km/h 20% 0 mm 267.0 W/m2
18:20 30.6 °C 5.8 °C 1003.9 hPa SSW 22.7 km/h 32.2 km/h 21% 0 mm 248.0 W/m2
18:30 30.3 °C 5.5 °C 1004.3 hPa SSW 32 km/h 32.2 km/h 21% 0 mm 202.0 W/m2
18:39 29.9 °C 5.9 °C 1004.3 hPa SSW 28.8 km/h 37 km/h 22% 0 mm 156.0 W/m2
18:50 29.7 °C 5.7 °C 1004.3 hPa South 32 km/h 32.2 km/h 22% 0 mm 118.0 W/m2
19:08 28.8 °C 9.5 °C 1004.6 hPa SSW 25.9 km/h 25.9 km/h 30% 0 mm 62.0 W/m2
19:35 27.8 °C 9.6 °C 1004.6 hPa SSW 22.7 km/h 30.6 km/h 32% 0 mm 11.0 W/m2
19:47 27.2 °C 10.4 °C 1004.6 hPa SSW 16.3 km/h 27.4 km/h 35% 0 mm 0.0 W/m2
19:53 27.1 °C 10.3 °C 1004.6 hPa South 22.7 km/h 29 km/h 35% 0 mm 0.0 W/m2
20:25 25.6 °C 11 °C 1005 hPa SSW 27.4 km/h 33.8 km/h 40% 0 mm 0.0 W/m2
20:42 24.8 °C 11.4 °C 1005.3 hPa SSW 30.6 km/h 32.2 km/h 43% 0 mm 0.0 W/m2
21:00 24.2 °C 11.5 °C 1005.6 hPa SW 28.8 km/h 35.4 km/h 45% 0 mm 0.0 W/m2
21:11 23.9 °C 11.6 °C 1005.6 hPa SW 27.4 km/h 29 km/h 46% 0 mm 0.0 W/m2
21:21 23.3 °C 11.4 °C 1006 hPa SW 17.7 km/h 27.4 km/h 47% 0 mm 0.0 W/m2
21:30 23.1 °C 11.5 °C 1006.3 hPa SSW 17.7 km/h 25.7 km/h 48% 0 mm 0.0 W/m2
21:35 23 °C 11.7 °C 1006.3 hPa South 28.8 km/h 32.2 km/h 49% 0 mm 0.0 W/m2
21:45 22.8 °C 11.8 °C 1006.3 hPa SSW 24.1 km/h 27.4 km/h 50% 0 mm 0.0 W/m2
21:50 22.6 °C 11.6 °C 1006.3 hPa SSW 16.3 km/h 27.4 km/h 50% 0 mm 0.0 W/m2
21:55 22.4 °C 11.8 °C 1006.7 hPa SSW 19.5 km/h 24.1 km/h 51% 0 mm 0.0 W/m2
22:00 22.3 °C 12 °C 1006.7 hPa South 16.3 km/h 24.1 km/h 52% 0 mm 0.0 W/m2
22:05 22.1 °C 11.8 °C 1006.7 hPa SSW 22.7 km/h 25.7 km/h 52% 0 mm 0.0 W/m2
22:10 21.9 °C 11.9 °C 1006.7 hPa SSW 25.9 km/h 25.9 km/h 53% 0 mm 0.0 W/m2
22:16 21.8 °C 12.1 °C 1006.7 hPa South 17.7 km/h 25.7 km/h 54% 0 mm 0.0 W/m2
22:26 21.6 °C 12.2 °C 1007 hPa South 16.3 km/h 22.5 km/h 55% 0 mm 0.0 W/m2
22:31 21.5 °C 12.1 °C 1007 hPa SSW 22.7 km/h 22.7 km/h 55% 0 mm 0.0 W/m2
22:36 21.4 °C 12.3 °C 1006.7 hPa SSW 14.3 km/h 22.5 km/h 56% 0 mm 0.0 W/m2
22:41 21.2 °C 12.3 °C 1006.7 hPa SSW 17.7 km/h 24.1 km/h 57% 0 mm 0.0 W/m2
22:51 21 °C 12.4 °C 1007 hPa South 14.3 km/h 20.9 km/h 58% 0 mm 0.0 W/m2
22:56 20.9 °C 12.3 °C 1007 hPa SSW 25.9 km/h 27.4 km/h 58% 0 mm 0.0 W/m2
23:01 20.8 °C 12.5 °C 1007 hPa South 20.9 km/h 25.7 km/h 59% 0 mm 0.0 W/m2
23:06 20.6 °C 12.6 °C 1007 hPa South 30.6 km/h 32.2 km/h 60% 0 mm 0.0 W/m2
23:16 20.4 °C 12.6 °C 1007.3 hPa SSW 17.7 km/h 22.5 km/h 61% 0 mm 0.0 W/m2
23:21 20.2 °C 12.7 °C 1007.3 hPa South 19.5 km/h 22.5 km/h 62% 0 mm 0.0 W/m2
23:26 20.1 °C 12.6 °C 1007.3 hPa South 22.7 km/h 25.7 km/h 62% 0 mm 0.0 W/m2
23:31 20 °C 12.7 °C 1007.3 hPa SSW 14.3 km/h 25.7 km/h 63% 0 mm 0.0 W/m2
23:36 19.9 °C 12.9 °C 1007.3 hPa SSW 20.9 km/h 25.7 km/h 64% 0 mm 0.0 W/m2
23:46 19.7 °C 12.7 °C 1007.3 hPa South 17.7 km/h 24.1 km/h 64% 0 mm 0.0 W/m2
23:56 19.6 °C 12.8 °C 1007.3 hPa SSW 14.3 km/h 24.1 km/h 65% 0 mm 0.0 W/m2
Canyon Roadhouse, Fishriver Canyon, Namibia
Compliments of Weather Underground - 2.5 mb